Terminal Aerodrome Forecast
Issued by NWS Sterling, VA

Current Version | Previous Version | Text Only | Print | Product List | Glossary On
Versions: 1 2 3 4 5 6 7 8 9 10 11 12 13 14 15 16 17 18 19
000
FTUS41 KLWX 061957 AAB
TAFMRB
TAF AMD
KMRB 061957Z 0620/0718 28012G25KT 4SM RA BKN035
     FM062100 05008KT P6SM BKN050
     FM070200 20008KT P6SM BKN050
     FM071000 00000KT 5SM BR BKN015
     FM071100 00000KT 5SM BR SCT015
     FM071300 00000KT P6SM SCT025=

USA.gov is the U.S. government's official web portal to all federal, state and local government web resources and services.